Time,TemperatureF,DewpointF,PressureIn,WindDirection,WindDirectionDegrees,WindSpeedMPH,WindSpeedGustMPH,Humidity,HourlyPrecipIn,Conditions,Clouds,dailyrainin,SoftwareType,DateUTC
2013-06-14 00:01:00,66.3,61.7,29.85,South,185,1.0,5.0,85,0.00,,,0.00,Wunderground v.1.15,2013-06-14 04:01:00,
2013-06-14 00:05:00,66.1,61.8,29.85,SSW,197,2.0,5.0,86,0.00,,,0.00,Wunderground v.1.15,2013-06-14 04:05:00,
2013-06-14 00:10:00,65.8,61.8,29.86,South,169,3.0,5.0,87,0.00,,,0.00,Wunderground v.1.15,2013-06-14 04:10:00,
2013-06-14 00:15:00,65.5,61.5,29.86,South,172,3.0,5.0,87,0.00,,,0.00,Wunderground v.1.15,2013-06-14 04:15:00,
2013-06-14 00:20:00,65.2,61.6,29.86,SSE,158,3.0,6.0,88,0.00,,,0.00,Wunderground v.1.15,2013-06-14 04:20:00,
2013-06-14 00:25:00,64.9,60.9,29.86,SW,220,3.0,6.0,87,0.00,,,0.00,Wunderground v.1.15,2013-06-14 04:25:00,
2013-06-14 00:30:00,64.6,60.6,29.86,SSE,162,3.0,5.0,87,0.00,,,0.00,Wunderground v.1.15,2013-06-14 04:30:00,
2013-06-14 00:35:00,64.4,60.4,29.87,SSE,155,2.0,5.0,87,0.00,,,0.00,Wunderground v.1.15,2013-06-14 04:35:00,
2013-06-14 00:40:00,64.3,60.7,29.86,SSE,166,2.0,5.0,88,0.00,,,0.00,Wunderground v.1.15,2013-06-14 04:40:00,
2013-06-14 00:45:00,64.2,60.2,29.87,SSE,150,2.0,5.0,87,0.00,,,0.00,Wunderground v.1.15,2013-06-14 04:45:00,
2013-06-14 00:50:00,64.0,60.4,29.87,SE,138,1.0,5.0,88,0.00,,,0.00,Wunderground v.1.15,2013-06-14 04:50:00,
2013-06-14 00:55:00,63.9,60.0,29.87,SE,141,2.0,5.0,87,0.00,,,0.00,Wunderground v.1.15,2013-06-14 04:55:00,
2013-06-14 01:00:00,63.9,59.6,29.87,SSE,157,2.0,2.0,86,0.00,,,0.00,Wunderground v.1.15,2013-06-14 05:00:00,
2013-06-14 01:05:00,64.0,59.7,29.87,SSE,154,2.0,3.0,86,0.00,,,0.00,Wunderground v.1.15,2013-06-14 05:05:00,
2013-06-14 01:10:00,64.0,59.7,29.87,SSE,148,2.0,5.0,86,0.00,,,0.00,Wunderground v.1.15,2013-06-14 05:10:00,
2013-06-14 01:15:00,64.0,59.7,29.87,South,185,2.0,5.0,86,0.00,,,0.00,Wunderground v.1.15,2013-06-14 05:15:00,
2013-06-14 01:20:00,64.0,59.7,29.87,South,169,1.0,5.0,86,0.00,,,0.00,Wunderground v.1.15,2013-06-14 05:20:00,
2013-06-14 01:25:00,64.0,59.7,29.87,East,101,2.0,5.0,86,0.00,,,0.00,Wunderground v.1.15,2013-06-14 05:25:00,
2013-06-14 01:30:00,64.0,59.7,29.87,SSE,153,2.0,2.0,86,0.00,,,0.00,Wunderground v.1.15,2013-06-14 05:30:00,
2013-06-14 01:35:00,64.0,59.4,29.87,SSW,211,2.0,3.0,85,0.00,,,0.00,Wunderground v.1.15,2013-06-14 05:35:00,
2013-06-14 01:40:00,64.0,59.4,29.87,SSE,157,2.0,5.0,85,0.00,,,0.00,Wunderground v.1.15,2013-06-14 05:40:00,
2013-06-14 01:45:00,64.0,58.7,29.88,SSE,156,2.0,5.0,83,0.00,,,0.00,Wunderground v.1.15,2013-06-14 05:45:00,
2013-06-14 01:55:00,64.0,58.1,29.88,WSW,241,3.0,5.0,81,0.00,,,0.00,Wunderground v.1.15,2013-06-14 05:55:00,
2013-06-14 02:01:00,64.0,57.7,29.88,SSE,160,3.0,5.0,80,0.00,,,0.00,Wunderground v.1.15,2013-06-14 06:01:00,
2013-06-14 02:10:00,63.7,57.4,29.89,South,169,2.0,2.0,80,0.00,,,0.00,Wunderground v.1.15,2013-06-14 06:10:00,
2013-06-14 02:15:00,63.5,57.2,29.88,SSE,149,2.0,3.0,80,0.00,,,0.00,Wunderground v.1.15,2013-06-14 06:15:00,
2013-06-14 02:20:00,63.3,56.7,29.88,South,178,2.0,2.0,79,0.00,,,0.00,Wunderground v.1.15,2013-06-14 06:20:00,
2013-06-14 02:25:00,63.1,56.8,29.88,SSW,210,2.0,5.0,80,0.00,,,0.00,Wunderground v.1.15,2013-06-14 06:25:00,
2013-06-14 02:30:00,62.8,56.9,29.88,SSE,166,1.0,1.0,81,0.00,,,0.00,Wunderground v.1.15,2013-06-14 06:30:00,
2013-06-14 02:40:00,62.1,55.9,29.89,South,182,1.0,5.0,80,0.00,,,0.00,Wunderground v.1.15,2013-06-14 06:40:00,
2013-06-14 02:45:00,61.9,56.3,29.89,South,181,1.0,5.0,82,0.00,,,0.00,Wunderground v.1.15,2013-06-14 06:45:00,
2013-06-14 02:55:00,61.4,55.9,29.89,SSE,156,1.0,5.0,82,0.00,,,0.00,Wunderground v.1.15,2013-06-14 06:55:00,
2013-06-14 03:01:00,61.2,56.0,29.89,SSE,156,0.0,5.0,83,0.00,,,0.00,Wunderground v.1.15,2013-06-14 07:01:00,
2013-06-14 03:05:00,60.9,55.7,29.89,SSE,156,0.0,5.0,83,0.00,,,0.00,Wunderground v.1.15,2013-06-14 07:05:00,
2013-06-14 03:10:00,60.7,55.5,29.89,SSE,156,1.0,1.0,83,0.00,,,0.00,Wunderground v.1.15,2013-06-14 07:10:00,
2013-06-14 03:15:00,60.5,55.3,29.89,SSE,153,1.0,5.0,83,0.00,,,0.00,Wunderground v.1.15,2013-06-14 07:15:00,
2013-06-14 03:20:00,60.4,55.2,29.89,SSE,153,1.0,1.0,83,0.00,,,0.00,Wunderground v.1.15,2013-06-14 07:20:00,
2013-06-14 03:25:00,60.2,55.0,29.89,SSE,153,0.0,5.0,83,0.00,,,0.00,Wunderground v.1.15,2013-06-14 07:25:00,
2013-06-14 03:35:00,59.9,55.7,29.89,SSE,153,0.0,5.0,86,0.00,,,0.00,Wunderground v.1.15,2013-06-14 07:35:00,
2013-06-14 03:40:00,59.7,55.5,29.89,SSE,153,0.0,5.0,86,0.00,,,0.00,Wunderground v.1.15,2013-06-14 07:40:00,
2013-06-14 03:45:00,59.5,55.3,29.89,SSE,153,0.0,5.0,86,0.00,,,0.00,Wunderground v.1.15,2013-06-14 07:45:00,
2013-06-14 03:50:00,59.3,55.1,29.89,SSE,153,0.0,5.0,86,0.00,,,0.00,Wunderground v.1.15,2013-06-14 07:50:00,
2013-06-14 03:55:00,59.1,54.9,29.89,SSE,153,0.0,5.0,86,0.00,,,0.00,Wunderground v.1.15,2013-06-14 07:55:00,
2013-06-14 04:00:00,58.9,54.7,29.89,SSE,153,0.0,5.0,86,0.00,,,0.00,Wunderground v.1.15,2013-06-14 08:00:00,
2013-06-14 04:10:00,58.8,54.6,29.89,SSE,153,0.0,5.0,86,0.00,,,0.00,Wunderground v.1.15,2013-06-14 08:10:00,
2013-06-14 04:15:00,58.8,54.6,29.89,SSE,153,0.0,5.0,86,0.00,,,0.00,Wunderground v.1.15,2013-06-14 08:15:00,
2013-06-14 04:20:00,58.8,54.6,29.89,SSE,153,0.0,5.0,86,0.00,,,0.00,Wunderground v.1.15,2013-06-14 08:20:00,
2013-06-14 04:25:00,58.7,54.5,29.90,SSE,153,0.0,5.0,86,0.00,,,0.00,Wunderground v.1.15,2013-06-14 08:25:00,
2013-06-14 04:30:00,58.7,54.5,29.90,SSE,153,0.0,5.0,86,0.00,,,0.00,Wunderground v.1.15,2013-06-14 08:30:00,
2013-06-14 04:35:00,58.6,54.4,29.90,SSE,153,0.0,5.0,86,0.00,,,0.00,Wunderground v.1.15,2013-06-14 08:35:00,
2013-06-14 04:40:00,58.7,54.5,29.90,SSE,153,0.0,5.0,86,0.00,,,0.00,Wunderground v.1.15,2013-06-14 08:40:00,
2013-06-14 04:45:00,58.7,54.5,29.90,SSE,153,0.0,5.0,86,0.00,,,0.00,Wunderground v.1.15,2013-06-14 08:45:00,
2013-06-14 04:50:00,58.7,54.5,29.90,SSE,153,1.0,1.0,86,0.00,,,0.00,Wunderground v.1.15,2013-06-14 08:50:00,
2013-06-14 04:55:00,58.8,54.3,29.90,SSE,153,1.0,5.0,85,0.00,,,0.00,Wunderground v.1.15,2013-06-14 08:55:00,
2013-06-14 05:01:00,58.9,54.4,29.91,SSE,153,1.0,1.0,85,0.00,,,0.00,Wunderground v.1.15,2013-06-14 09:01:00,
2013-06-14 05:05:00,58.9,54.4,29.91,SSE,153,0.0,5.0,85,0.00,,,0.00,Wunderground v.1.15,2013-06-14 09:05:00,
2013-06-14 05:10:00,58.9,54.4,29.91,SSE,153,0.0,5.0,85,0.00,,,0.00,Wunderground v.1.15,2013-06-14 09:10:00,
2013-06-14 05:15:00,58.9,54.7,29.91,SSE,153,0.0,5.0,86,0.00,,,0.00,Wunderground v.1.15,2013-06-14 09:15:00,
2013-06-14 05:20:00,58.9,54.7,29.91,SSE,153,0.0,5.0,86,0.00,,,0.00,Wunderground v.1.15,2013-06-14 09:20:00,
2013-06-14 05:25:00,58.9,55.0,29.91,SSE,153,0.0,5.0,87,0.00,,,0.00,Wunderground v.1.15,2013-06-14 09:25:00,
2013-06-14 05:30:00,58.9,54.4,29.92,SSE,153,0.0,5.0,85,0.00,,,0.00,Wunderground v.1.15,2013-06-14 09:30:00,
2013-06-14 05:35:00,58.9,54.7,29.92,SSE,153,0.0,5.0,86,0.00,,,0.00,Wunderground v.1.15,2013-06-14 09:35:00,
2013-06-14 05:40:00,58.9,54.7,29.93,SSE,153,0.0,5.0,86,0.00,,,0.00,Wunderground v.1.15,2013-06-14 09:40:00,
2013-06-14 05:45:00,58.8,54.3,29.93,SSE,153,0.0,5.0,85,0.00,,,0.00,Wunderground v.1.15,2013-06-14 09:45:00,
2013-06-14 05:50:00,58.7,54.2,29.93,SSE,153,0.0,5.0,85,0.00,,,0.00,Wunderground v.1.15,2013-06-14 09:50:00,
2013-06-14 05:55:00,58.7,54.2,29.93,SSE,153,1.0,5.0,85,0.00,,,0.00,Wunderground v.1.15,2013-06-14 09:55:00,
2013-06-14 06:01:00,58.7,53.9,29.94,SSE,167,1.0,1.0,84,0.00,,,0.00,Wunderground v.1.15,2013-06-14 10:01:00,
2013-06-14 06:10:00,58.8,54.3,29.94,South,169,1.0,5.0,85,0.00,,,0.00,Wunderground v.1.15,2013-06-14 10:10:00,
2013-06-14 06:15:00,59.0,54.2,29.94,SSW,197,1.0,5.0,84,0.00,,,0.00,Wunderground v.1.15,2013-06-14 10:15:00,
2013-06-14 06:20:00,59.3,53.8,29.94,SSW,197,2.0,5.0,82,0.00,,,0.00,Wunderground v.1.15,2013-06-14 10:20:00,
2013-06-14 06:25:00,59.6,53.8,29.94,South,190,3.0,5.0,81,0.00,,,0.00,Wunderground v.1.15,2013-06-14 10:25:00,
2013-06-14 06:30:00,60.0,53.8,29.93,SSE,155,3.0,5.0,80,0.00,,,0.00,Wunderground v.1.15,2013-06-14 10:30:00,
2013-06-14 06:35:00,60.2,54.0,29.92,SSW,196,4.0,5.0,80,0.00,,,0.00,Wunderground v.1.15,2013-06-14 10:35:00,
2013-06-14 06:40:00,60.2,54.0,29.92,SSW,202,4.0,5.0,80,0.00,,,0.00,Wunderground v.1.15,2013-06-14 10:40:00,
2013-06-14 06:45:00,60.1,53.9,29.91,South,184,4.0,5.0,80,0.00,,,0.00,Wunderground v.1.15,2013-06-14 10:45:00,
2013-06-14 06:55:00,59.8,53.6,29.90,South,171,5.0,7.0,80,0.00,,,0.00,Wunderground v.1.15,2013-06-14 10:55:00,
2013-06-14 07:01:00,59.9,53.7,29.90,South,178,5.0,5.0,80,0.00,,,0.00,Wunderground v.1.15,2013-06-14 11:01:00,
2013-06-14 07:05:00,60.0,53.5,29.90,South,184,5.0,6.0,79,0.00,,,0.00,Wunderground v.1.15,2013-06-14 11:05:00,
2013-06-14 07:10:00,60.2,53.7,29.90,South,177,5.0,5.0,79,0.00,,,0.00,Wunderground v.1.15,2013-06-14 11:10:00,
2013-06-14 07:15:00,60.3,53.8,29.90,South,175,4.0,5.0,79,0.00,,,0.00,Wunderground v.1.15,2013-06-14 11:15:00,
2013-06-14 07:20:00,60.3,53.8,29.90,SSE,159,4.0,5.0,79,0.00,,,0.00,Wunderground v.1.15,2013-06-14 11:20:00,
2013-06-14 07:25:00,60.4,53.9,29.91,SSE,161,4.0,5.0,79,0.00,,,0.00,Wunderground v.1.15,2013-06-14 11:25:00,
2013-06-14 07:30:00,60.4,53.9,29.91,SSW,196,4.0,6.0,79,0.00,,,0.00,Wunderground v.1.15,2013-06-14 11:30:00,
2013-06-14 07:35:00,60.4,53.9,29.91,SSE,166,4.0,6.0,79,0.00,,,0.00,Wunderground v.1.15,2013-06-14 11:35:00,
2013-06-14 07:45:00,60.5,53.6,29.91,SSE,154,3.0,5.0,78,0.00,,,0.00,Wunderground v.1.15,2013-06-14 11:45:00,
2013-06-14 07:50:00,60.5,53.6,29.91,SE,144,4.0,4.0,78,0.00,,,0.00,Wunderground v.1.15,2013-06-14 11:50:00,
2013-06-14 07:55:00,60.5,53.3,29.91,SSE,147,3.0,5.0,77,0.00,,,0.00,Wunderground v.1.15,2013-06-14 11:55:00,
2013-06-14 08:01:00,60.6,53.7,29.92,SSW,196,3.0,5.0,78,0.00,,,0.00,Wunderground v.1.15,2013-06-14 12:01:00,
2013-06-14 08:10:00,60.8,53.2,29.92,SSE,157,3.0,5.0,76,0.00,,,0.00,Wunderground v.1.15,2013-06-14 12:10:00,
2013-06-14 08:15:00,60.9,53.6,29.92,SE,140,3.0,5.0,77,0.00,,,0.00,Wunderground v.1.15,2013-06-14 12:15:00,
2013-06-14 08:20:00,60.9,53.6,29.92,SSW,213,3.0,5.0,77,0.00,,,0.00,Wunderground v.1.15,2013-06-14 12:20:00,
2013-06-14 08:25:00,61.0,53.7,29.93,South,185,3.0,5.0,77,0.00,,,0.00,Wunderground v.1.15,2013-06-14 12:25:00,
2013-06-14 08:30:00,61.2,53.6,29.93,SSW,205,4.0,5.0,76,0.00,,,0.00,Wunderground v.1.15,2013-06-14 12:30:00,
2013-06-14 08:35:00,61.4,53.4,29.93,SSE,156,4.0,6.0,75,0.00,,,0.00,Wunderground v.1.15,2013-06-14 12:35:00,
2013-06-14 08:40:00,61.7,53.3,29.92,SE,143,4.0,8.0,74,0.00,,,0.00,Wunderground v.1.15,2013-06-14 12:40:00,
2013-06-14 08:45:00,61.9,53.1,29.93,SSE,164,5.0,8.0,73,0.00,,,0.00,Wunderground v.1.15,2013-06-14 12:45:00,
2013-06-14 08:50:00,62.1,53.0,29.93,South,177,4.0,5.0,72,0.00,,,0.00,Wunderground v.1.15,2013-06-14 12:50:00,
2013-06-14 08:55:00,62.3,53.2,29.94,South,182,4.0,5.0,72,0.00,,,0.00,Wunderground v.1.15,2013-06-14 12:55:00,
2013-06-14 09:01:00,62.5,53.3,29.94,South,175,4.0,5.0,72,0.00,,,0.00,Wunderground v.1.15,2013-06-14 13:01:00,
2013-06-14 09:05:00,62.6,53.8,29.95,SSE,155,4.0,5.0,73,0.00,,,0.00,Wunderground v.1.15,2013-06-14 13:05:00,
2013-06-14 09:10:00,62.8,54.0,29.95,SSE,159,4.0,5.0,73,0.00,,,0.00,Wunderground v.1.15,2013-06-14 13:10:00,
2013-06-14 09:15:00,63.0,54.2,29.96,SSE,161,4.0,5.0,73,0.00,,,0.00,Wunderground v.1.15,2013-06-14 13:15:00,
2013-06-14 09:20:00,63.1,53.9,29.96,SSE,151,3.0,5.0,72,0.00,,,0.00,Wunderground v.1.15,2013-06-14 13:20:00,
2013-06-14 09:25:00,63.3,54.1,29.96,SSE,161,3.0,5.0,72,0.00,,,0.00,Wunderground v.1.15,2013-06-14 13:25:00,
2013-06-14 09:30:00,63.5,53.9,29.97,SSE,148,4.0,4.0,71,0.00,,,0.00,Wunderground v.1.15,2013-06-14 13:30:00,
2013-06-14 09:35:00,63.8,53.8,29.97,South,187,4.0,5.0,70,0.00,,,0.00,Wunderground v.1.15,2013-06-14 13:35:00,
2013-06-14 09:40:00,64.0,54.0,29.97,SSE,165,5.0,5.0,70,0.00,,,0.00,Wunderground v.1.15,2013-06-14 13:40:00,
2013-06-14 09:45:00,64.2,54.2,29.97,SSW,205,5.0,6.0,70,0.00,,,0.00,Wunderground v.1.15,2013-06-14 13:45:00,
2013-06-14 09:50:00,64.3,54.3,29.98,South,180,5.0,5.0,70,0.00,,,0.00,Wunderground v.1.15,2013-06-14 13:50:00,
2013-06-14 09:55:00,64.5,54.5,29.97,South,184,5.0,6.0,70,0.00,,,0.00,Wunderground v.1.15,2013-06-14 13:55:00,
2013-06-14 10:01:00,64.7,54.7,29.98,South,175,4.0,4.0,70,0.00,,,0.00,Wunderground v.1.15,2013-06-14 14:01:00,
2013-06-14 10:05:00,64.9,54.5,29.98,SSE,148,4.0,5.0,69,0.00,,,0.00,Wunderground v.1.15,2013-06-14 14:05:00,
2013-06-14 10:10:00,65.1,55.1,29.98,SSE,157,4.0,5.0,70,0.00,,,0.00,Wunderground v.1.15,2013-06-14 14:10:00,
2013-06-14 10:15:00,65.3,54.9,29.98,SSW,200,3.0,5.0,69,0.00,,,0.00,Wunderground v.1.15,2013-06-14 14:15:00,
2013-06-14 10:20:00,65.4,54.6,29.98,South,169,4.0,5.0,68,0.00,,,0.00,Wunderground v.1.15,2013-06-14 14:20:00,
2013-06-14 10:25:00,65.7,55.6,29.98,SSE,159,4.0,5.0,70,0.00,,,0.00,Wunderground v.1.15,2013-06-14 14:25:00,
2013-06-14 10:30:00,65.9,55.4,29.98,SSW,192,4.0,7.0,69,0.00,,,0.00,Wunderground v.1.15,2013-06-14 14:30:00,
2013-06-14 10:40:00,66.2,55.7,29.98,South,177,4.0,4.0,69,0.00,,,0.00,Wunderground v.1.15,2013-06-14 14:40:00,
2013-06-14 10:45:00,66.5,56.0,29.98,SSE,168,3.0,5.0,69,0.00,,,0.00,Wunderground v.1.15,2013-06-14 14:45:00,
2013-06-14 10:50:00,66.8,56.3,29.98,ESE,123,3.0,5.0,69,0.00,,,0.00,Wunderground v.1.15,2013-06-14 14:50:00,
2013-06-14 10:55:00,66.8,56.3,29.98,South,188,4.0,6.0,69,0.00,,,0.00,Wunderground v.1.15,2013-06-14 14:55:00,
2013-06-14 11:00:00,67.0,56.1,29.98,SSE,150,4.0,5.0,68,0.00,,,0.00,Wunderground v.1.15,2013-06-14 15:00:00,
2013-06-14 11:05:00,67.1,55.8,29.98,WSW,257,4.0,5.0,67,0.00,,,0.00,Wunderground v.1.15,2013-06-14 15:05:00,
2013-06-14 11:10:00,67.1,54.5,29.99,South,185,4.0,5.0,64,0.00,,,0.00,Wunderground v.1.15,2013-06-14 15:10:00,
2013-06-14 11:15:00,67.3,55.5,29.99,SSE,153,4.0,5.0,66,0.00,,,0.00,Wunderground v.1.15,2013-06-14 15:15:00,
2013-06-14 11:20:00,67.6,56.2,29.99,SSE,154,4.0,5.0,67,0.00,,,0.00,Wunderground v.1.15,2013-06-14 15:20:00,
2013-06-14 11:25:00,68.0,56.2,29.97,SSE,158,4.0,5.0,66,0.00,,,0.00,Wunderground v.1.15,2013-06-14 15:25:00,
2013-06-14 11:30:00,68.2,56.4,29.98,SE,129,4.0,4.0,66,0.00,,,0.00,Wunderground v.1.15,2013-06-14 15:30:00,
2013-06-14 11:35:00,68.6,56.4,29.98,SSW,205,3.0,5.0,65,0.00,,,0.00,Wunderground v.1.15,2013-06-14 15:35:00,
2013-06-14 11:40:00,69.1,56.4,29.99,South,171,3.0,3.0,64,0.00,,,0.00,Wunderground v.1.15,2013-06-14 15:40:00,
2013-06-14 11:45:00,69.7,56.5,29.99,SE,140,3.0,5.0,63,0.00,,,0.00,Wunderground v.1.15,2013-06-14 15:45:00,
2013-06-14 11:50:00,69.9,56.3,29.99,SSE,150,3.0,3.0,62,0.00,,,0.00,Wunderground v.1.15,2013-06-14 15:50:00,
2013-06-14 11:55:00,69.9,54.9,30.00,SSW,196,3.0,5.0,59,0.00,,,0.00,Wunderground v.1.15,2013-06-14 15:55:00,
2013-06-14 12:01:00,70.0,54.5,30.00,SE,139,3.0,3.0,58,0.00,,,0.00,Wunderground v.1.15,2013-06-14 16:01:00,
2013-06-14 12:05:00,70.0,54.5,30.00,SE,144,3.0,5.0,58,0.00,,,0.00,Wunderground v.1.15,2013-06-14 16:05:00,
2013-06-14 12:10:00,70.2,55.7,30.01,South,190,3.0,3.0,60,0.00,,,0.00,Wunderground v.1.15,2013-06-14 16:10:00,
2013-06-14 12:15:00,70.4,56.3,30.00,East,92,3.0,5.0,61,0.00,,,0.00,Wunderground v.1.15,2013-06-14 16:15:00,
2013-06-14 12:20:00,70.7,56.6,30.00,SSE,150,2.0,5.0,61,0.00,,,0.00,Wunderground v.1.15,2013-06-14 16:20:00,
2013-06-14 12:25:00,70.8,56.7,30.00,SSE,153,2.0,5.0,61,0.00,,,0.00,Wunderground v.1.15,2013-06-14 16:25:00,
2013-06-14 12:30:00,71.0,55.5,30.00,SSE,165,3.0,5.0,58,0.00,,,0.00,Wunderground v.1.15,2013-06-14 16:30:00,
2013-06-14 12:35:00,71.2,56.1,30.00,SE,134,3.0,5.0,59,0.00,,,0.00,Wunderground v.1.15,2013-06-14 16:35:00,
2013-06-14 12:40:00,71.4,55.4,30.00,SSE,157,3.0,6.0,57,0.00,,,0.00,Wunderground v.1.15,2013-06-14 16:40:00,
2013-06-14 12:45:00,71.4,54.9,30.01,NW,325,3.0,6.0,56,0.00,,,0.00,Wunderground v.1.15,2013-06-14 16:45:00,
2013-06-14 12:50:00,71.6,55.6,30.01,SW,229,3.0,5.0,57,0.00,,,0.00,Wunderground v.1.15,2013-06-14 16:50:00,
2013-06-14 12:55:00,71.9,54.9,30.01,South,171,3.0,5.0,55,0.00,,,0.00,Wunderground v.1.15,2013-06-14 16:55:00,
2013-06-14 13:01:00,72.0,53.9,30.01,South,174,3.0,3.0,53,0.00,,,0.00,Wunderground v.1.15,2013-06-14 17:01:00,
2013-06-14 13:05:00,71.9,54.3,30.01,SSW,205,3.0,5.0,54,0.00,,,0.00,Wunderground v.1.15,2013-06-14 17:05:00,
2013-06-14 13:10:00,71.8,54.3,30.01,South,182,3.0,3.0,54,0.00,,,0.00,Wunderground v.1.15,2013-06-14 17:10:00,
2013-06-14 13:15:00,72.0,54.4,30.01,South,171,3.0,5.0,54,0.00,,,0.00,Wunderground v.1.15,2013-06-14 17:15:00,
2013-06-14 13:25:00,72.4,54.8,30.02,SSW,206,3.0,5.0,54,0.00,,,0.00,Wunderground v.1.15,2013-06-14 17:25:00,
2013-06-14 13:30:00,72.5,55.4,30.02,SSE,153,3.0,3.0,55,0.00,,,0.00,Wunderground v.1.15,2013-06-14 17:30:00,
2013-06-14 13:35:00,73.0,55.4,30.02,South,184,3.0,4.0,54,0.00,,,0.00,Wunderground v.1.15,2013-06-14 17:35:00,
2013-06-14 13:40:00,73.1,54.9,30.02,SSE,151,3.0,3.0,53,0.00,,,0.00,Wunderground v.1.15,2013-06-14 17:40:00,
2013-06-14 13:45:00,73.2,56.1,30.02,SSE,167,3.0,5.0,55,0.00,,,0.00,Wunderground v.1.15,2013-06-14 17:45:00,
2013-06-14 13:50:00,73.5,54.8,30.02,SSE,158,3.0,5.0,52,0.00,,,0.00,Wunderground v.1.15,2013-06-14 17:50:00,
2013-06-14 13:55:00,73.3,54.6,30.02,SSE,166,3.0,5.0,52,0.00,,,0.00,Wunderground v.1.15,2013-06-14 17:55:00,
2013-06-14 14:01:00,73.3,54.6,30.02,South,183,3.0,5.0,52,0.00,,,0.00,Wunderground v.1.15,2013-06-14 18:01:00,
2013-06-14 14:05:00,73.4,54.2,30.02,South,183,3.0,5.0,51,0.00,,,0.00,Wunderground v.1.15,2013-06-14 18:05:00,
2013-06-14 14:10:00,73.4,54.7,30.02,SSE,165,3.0,3.0,52,0.00,,,0.00,Wunderground v.1.15,2013-06-14 18:10:00,
2013-06-14 14:15:00,73.2,55.6,30.02,SSE,154,3.0,4.0,54,0.00,,,0.00,Wunderground v.1.15,2013-06-14 18:15:00,
2013-06-14 14:20:00,73.3,55.6,30.02,SSE,153,3.0,9.0,54,0.00,,,0.00,Wunderground v.1.15,2013-06-14 18:20:00,
2013-06-14 14:25:00,73.1,54.4,30.02,South,185,4.0,9.0,52,0.00,,,0.00,Wunderground v.1.15,2013-06-14 18:25:00,
2013-06-14 14:30:00,73.0,55.4,30.02,SE,132,4.0,7.0,54,0.00,,,0.00,Wunderground v.1.15,2013-06-14 18:30:00,
2013-06-14 14:35:00,73.0,54.9,30.02,SSE,155,3.0,7.0,53,0.00,,,0.00,Wunderground v.1.15,2013-06-14 18:35:00,
2013-06-14 14:40:00,73.0,52.1,30.02,SSE,165,4.0,5.0,48,0.00,,,0.00,Wunderground v.1.15,2013-06-14 18:40:00,
2013-06-14 14:45:00,73.0,54.3,30.01,South,179,3.0,5.0,52,0.00,,,0.00,Wunderground v.1.15,2013-06-14 18:45:00,
2013-06-14 14:50:00,73.3,55.1,30.01,SW,221,3.0,3.0,53,0.00,,,0.00,Wunderground v.1.15,2013-06-14 18:50:00,
2013-06-14 14:55:00,73.7,55.5,30.01,South,187,3.0,5.0,53,0.00,,,0.00,Wunderground v.1.15,2013-06-14 18:55:00,
2013-06-14 15:01:00,74.0,55.8,30.01,SSE,163,3.0,3.0,53,0.00,,,0.00,Wunderground v.1.15,2013-06-14 19:01:00,
2013-06-14 15:10:00,73.9,55.2,30.01,SSE,165,3.0,3.0,52,0.00,,,0.00,Wunderground v.1.15,2013-06-14 19:10:00,
2013-06-14 15:15:00,74.3,56.6,30.01,South,180,2.0,4.0,54,0.00,,,0.00,Wunderground v.1.15,2013-06-14 19:15:00,
2013-06-14 15:20:00,74.5,55.2,30.02,South,175,2.0,5.0,51,0.00,,,0.00,Wunderground v.1.15,2013-06-14 19:20:00,
2013-06-14 15:25:00,74.2,53.8,30.02,SW,222,3.0,5.0,49,0.00,,,0.00,Wunderground v.1.15,2013-06-14 19:25:00,
2013-06-14 15:30:00,73.7,55.5,30.01,SSE,156,4.0,5.0,53,0.00,,,0.00,Wunderground v.1.15,2013-06-14 19:30:00,
2013-06-14 15:35:00,73.4,54.2,30.01,South,182,4.0,6.0,51,0.00,,,0.00,Wunderground v.1.15,2013-06-14 19:35:00,
2013-06-14 15:40:00,73.3,55.1,30.01,SW,219,4.0,5.0,53,0.00,,,0.00,Wunderground v.1.15,2013-06-14 19:40:00,
2013-06-14 15:45:00,73.4,54.7,30.01,South,178,4.0,5.0,52,0.00,,,0.00,Wunderground v.1.15,2013-06-14 19:45:00,
2013-06-14 15:50:00,73.4,54.2,30.01,South,173,4.0,4.0,51,0.00,,,0.00,Wunderground v.1.15,2013-06-14 19:50:00,
2013-06-14 15:55:00,73.4,55.2,30.01,South,189,3.0,5.0,53,0.00,,,0.00,Wunderground v.1.15,2013-06-14 19:55:00,
2013-06-14 16:01:00,73.4,55.2,30.01,SSE,167,3.0,5.0,53,0.00,,,0.00,Wunderground v.1.15,2013-06-14 20:01:00,
2013-06-14 16:10:00,73.2,55.6,30.01,South,169,4.0,5.0,54,0.00,,,0.00,Wunderground v.1.15,2013-06-14 20:10:00,
2013-06-14 16:15:00,73.1,56.0,30.01,SSE,164,4.0,5.0,55,0.00,,,0.00,Wunderground v.1.15,2013-06-14 20:15:00,
2013-06-14 16:20:00,73.2,56.1,30.00,SSE,160,3.0,5.0,55,0.00,,,0.00,Wunderground v.1.15,2013-06-14 20:20:00,
2013-06-14 16:25:00,73.3,55.6,30.00,South,185,4.0,5.0,54,0.00,,,0.00,Wunderground v.1.15,2013-06-14 20:25:00,
2013-06-14 16:30:00,73.1,56.0,30.00,SSE,161,3.0,5.0,55,0.00,,,0.00,Wunderground v.1.15,2013-06-14 20:30:00,
2013-06-14 16:35:00,73.1,55.5,30.00,SSE,164,3.0,5.0,54,0.00,,,0.00,Wunderground v.1.15,2013-06-14 20:35:00,
2013-06-14 16:40:00,73.2,56.1,30.01,South,173,3.0,3.0,55,0.00,,,0.00,Wunderground v.1.15,2013-06-14 20:40:00,
2013-06-14 16:45:00,73.1,55.5,30.00,South,171,3.0,7.0,54,0.00,,,0.00,Wunderground v.1.15,2013-06-14 20:45:00,
2013-06-14 16:50:00,73.1,56.5,30.01,SSW,200,3.0,5.0,56,0.00,,,0.00,Wunderground v.1.15,2013-06-14 20:50:00,
2013-06-14 16:55:00,73.7,55.5,30.01,SSE,154,2.0,5.0,53,0.00,,,0.00,Wunderground v.1.15,2013-06-14 20:55:00,
2013-06-14 17:01:00,74.1,55.9,30.01,SSW,200,2.0,2.0,53,0.00,,,0.00,Wunderground v.1.15,2013-06-14 21:01:00,
2013-06-14 17:05:00,74.1,55.9,30.01,SSE,160,2.0,5.0,53,0.00,,,0.00,Wunderground v.1.15,2013-06-14 21:05:00,
2013-06-14 17:10:00,74.2,56.5,30.01,SSE,163,2.0,5.0,54,0.00,,,0.00,Wunderground v.1.15,2013-06-14 21:10:00,
2013-06-14 17:15:00,74.3,56.6,30.02,SE,145,2.0,5.0,54,0.00,,,0.00,Wunderground v.1.15,2013-06-14 21:15:00,
2013-06-14 17:20:00,74.4,56.2,30.02,ESE,119,2.0,2.0,53,0.00,,,0.00,Wunderground v.1.15,2013-06-14 21:20:00,
2013-06-14 17:25:00,74.4,56.7,30.02,ESE,120,1.0,5.0,54,0.00,,,0.00,Wunderground v.1.15,2013-06-14 21:25:00,
2013-06-14 17:30:00,74.4,56.2,30.02,South,180,1.0,1.0,53,0.00,,,0.00,Wunderground v.1.15,2013-06-14 21:30:00,
2013-06-14 17:35:00,74.1,56.4,30.02,SSW,207,2.0,3.0,54,0.00,,,0.00,Wunderground v.1.15,2013-06-14 21:35:00,
2013-06-14 17:40:00,74.1,55.9,30.02,SE,142,2.0,2.0,53,0.00,,,0.00,Wunderground v.1.15,2013-06-14 21:40:00,
2013-06-14 17:45:00,74.0,54.2,30.02,SE,141,2.0,5.0,50,0.00,,,0.00,Wunderground v.1.15,2013-06-14 21:45:00,
2013-06-14 17:55:00,73.6,55.4,30.02,SSE,151,2.0,3.0,53,0.00,,,0.00,Wunderground v.1.15,2013-06-14 21:55:00,
2013-06-14 18:01:00,73.5,55.8,30.02,WSW,252,2.0,2.0,54,0.00,,,0.00,Wunderground v.1.15,2013-06-14 22:01:00,
2013-06-14 18:05:00,73.7,55.0,30.03,SSW,198,2.0,4.0,52,0.00,,,0.00,Wunderground v.1.15,2013-06-14 22:05:00,
2013-06-14 18:10:00,73.8,55.1,30.02,SSW,201,3.0,5.0,52,0.00,,,0.00,Wunderground v.1.15,2013-06-14 22:10:00,
2013-06-14 18:15:00,73.5,54.8,30.02,SSE,150,2.0,5.0,52,0.00,,,0.00,Wunderground v.1.15,2013-06-14 22:15:00,
2013-06-14 18:25:00,73.5,55.8,30.02,SSE,163,2.0,5.0,54,0.00,,,0.00,Wunderground v.1.15,2013-06-14 22:25:00,
2013-06-14 18:30:00,73.4,55.7,30.02,SSE,150,2.0,5.0,54,0.00,,,0.00,Wunderground v.1.15,2013-06-14 22:30:00,
2013-06-14 18:35:00,73.1,55.5,30.02,SE,144,2.0,5.0,54,0.00,,,0.00,Wunderground v.1.15,2013-06-14 22:35:00,
2013-06-14 18:40:00,72.9,55.8,30.02,SSE,158,2.0,2.0,55,0.00,,,0.00,Wunderground v.1.15,2013-06-14 22:40:00,
2013-06-14 18:45:00,72.8,54.7,30.02,SW,231,2.0,5.0,53,0.00,,,0.00,Wunderground v.1.15,2013-06-14 22:45:00,
2013-06-14 18:55:00,72.8,55.2,30.03,SSE,152,1.0,5.0,54,0.00,,,0.00,Wunderground v.1.15,2013-06-14 22:55:00,
2013-06-14 19:01:00,72.8,55.7,30.03,SW,223,1.0,5.0,55,0.00,,,0.00,Wunderground v.1.15,2013-06-14 23:01:00,
2013-06-14 19:10:00,72.6,55.5,30.03,SSW,202,1.0,1.0,55,0.00,,,0.00,Wunderground v.1.15,2013-06-14 23:10:00,
2013-06-14 19:15:00,72.5,56.4,30.03,South,172,1.0,5.0,57,0.00,,,0.00,Wunderground v.1.15,2013-06-14 23:15:00,
2013-06-14 19:25:00,72.2,56.1,30.04,South,172,0.0,5.0,57,0.00,,,0.00,Wunderground v.1.15,2013-06-14 23:25:00,
2013-06-14 19:30:00,71.8,56.2,30.04,South,177,1.0,1.0,58,0.00,,,0.00,Wunderground v.1.15,2013-06-14 23:30:00,
2013-06-14 19:35:00,71.3,55.8,30.04,SSE,155,1.0,2.0,58,0.00,,,0.00,Wunderground v.1.15,2013-06-14 23:35:00,
2013-06-14 19:40:00,70.8,54.8,30.04,SSE,155,2.0,5.0,57,0.00,,,0.00,Wunderground v.1.15,2013-06-14 23:40:00,
2013-06-14 19:45:00,70.3,54.8,30.04,SSW,200,2.0,5.0,58,0.00,,,0.00,Wunderground v.1.15,2013-06-14 23:45:00,
2013-06-14 19:50:00,69.9,54.9,30.04,SSE,167,2.0,2.0,59,0.00,,,0.00,Wunderground v.1.15,2013-06-14 23:50:00,
2013-06-14 19:55:00,69.7,55.2,30.05,SSE,168,1.0,5.0,60,0.00,,,0.00,Wunderground v.1.15,2013-06-14 23:55:00,
2013-06-14 20:01:00,69.5,55.0,30.05,South,169,0.0,5.0,60,0.00,,,0.00,Wunderground v.1.15,2013-06-15 00:01:00,
2013-06-14 20:05:00,69.3,54.8,30.05,South,169,0.0,5.0,60,0.00,,,0.00,Wunderground v.1.15,2013-06-15 00:05:00,
2013-06-14 20:10:00,69.0,55.0,30.05,South,169,0.0,5.0,61,0.00,,,0.00,Wunderground v.1.15,2013-06-15 00:10:00,
2013-06-14 20:15:00,68.7,55.2,30.05,South,169,0.0,5.0,62,0.00,,,0.00,Wunderground v.1.15,2013-06-15 00:15:00,
2013-06-14 20:20:00,68.4,54.4,30.05,SSE,158,1.0,5.0,61,0.00,,,0.00,Wunderground v.1.15,2013-06-15 00:20:00,
2013-06-14 20:25:00,68.1,55.0,30.06,SE,144,1.0,5.0,63,0.00,,,0.00,Wunderground v.1.15,2013-06-15 00:25:00,
2013-06-14 20:30:00,67.9,54.8,30.06,WNW,296,0.0,5.0,63,0.00,,,0.00,Wunderground v.1.15,2013-06-15 00:30:00,
2013-06-14 20:35:00,67.6,55.0,30.06,WNW,296,0.0,5.0,64,0.00,,,0.00,Wunderground v.1.15,2013-06-15 00:35:00,
2013-06-14 20:40:00,67.1,54.5,30.06,South,191,0.0,5.0,64,0.00,,,0.00,Wunderground v.1.15,2013-06-15 00:40:00,
2013-06-14 20:45:00,66.8,54.7,30.06,South,184,0.0,5.0,65,0.00,,,0.00,Wunderground v.1.15,2013-06-15 00:45:00,
2013-06-14 20:50:00,66.5,54.4,30.06,South,184,0.0,5.0,65,0.00,,,0.00,Wunderground v.1.15,2013-06-15 00:50:00,
2013-06-14 20:55:00,66.2,54.5,30.06,South,184,0.0,5.0,66,0.00,,,0.00,Wunderground v.1.15,2013-06-15 00:55:00,
2013-06-14 21:01:00,65.9,54.2,30.06,South,184,0.0,5.0,66,0.00,,,0.00,Wunderground v.1.15,2013-06-15 01:01:00,
2013-06-14 21:05:00,65.6,54.3,30.06,South,184,0.0,5.0,67,0.00,,,0.00,Wunderground v.1.15,2013-06-15 01:05:00,
2013-06-14 21:10:00,65.4,53.7,30.06,SSE,158,0.0,5.0,66,0.00,,,0.00,Wunderground v.1.15,2013-06-15 01:10:00,
2013-06-14 21:15:00,65.2,54.0,30.06,SSE,158,0.0,5.0,67,0.00,,,0.00,Wunderground v.1.15,2013-06-15 01:15:00,
2013-06-14 21:20:00,65.1,53.9,30.07,SSE,157,0.0,5.0,67,0.00,,,0.00,Wunderground v.1.15,2013-06-15 01:20:00,
2013-06-14 21:25:00,64.8,53.6,30.07,SSE,157,0.0,5.0,67,0.00,,,0.00,Wunderground v.1.15,2013-06-15 01:25:00,
2013-06-14 21:30:00,64.6,54.6,30.07,SSE,157,0.0,5.0,70,0.00,,,0.00,Wunderground v.1.15,2013-06-15 01:30:00,
2013-06-14 21:40:00,64.3,54.3,30.08,SSE,157,0.0,5.0,70,0.00,,,0.00,Wunderground v.1.15,2013-06-15 01:40:00,
2013-06-14 21:45:00,64.1,54.5,30.08,SSE,157,0.0,5.0,71,0.00,,,0.00,Wunderground v.1.15,2013-06-15 01:45:00,
2013-06-14 21:50:00,64.0,54.4,30.08,SSE,157,0.0,5.0,71,0.00,,,0.00,Wunderground v.1.15,2013-06-15 01:50:00,
2013-06-14 21:55:00,63.9,54.3,30.08,SSE,157,0.0,5.0,71,0.00,,,0.00,Wunderground v.1.15,2013-06-15 01:55:00,
2013-06-14 22:01:00,63.7,54.1,30.08,SSE,157,0.0,5.0,71,0.00,,,0.00,Wunderground v.1.15,2013-06-15 02:01:00,
2013-06-14 22:05:00,63.6,54.4,30.08,SSE,157,0.0,5.0,72,0.00,,,0.00,Wunderground v.1.15,2013-06-15 02:05:00,
2013-06-14 22:10:00,63.5,54.3,30.09,SSE,157,0.0,5.0,72,0.00,,,0.00,Wunderground v.1.15,2013-06-15 02:10:00,
2013-06-14 22:15:00,63.4,54.6,30.09,SSE,157,0.0,5.0,73,0.00,,,0.00,Wunderground v.1.15,2013-06-15 02:15:00,
2013-06-14 22:25:00,63.0,54.6,30.10,SSE,157,0.0,5.0,74,0.00,,,0.00,Wunderground v.1.15,2013-06-15 02:25:00,
2013-06-14 22:30:00,62.8,54.0,30.10,SSE,157,0.0,5.0,73,0.00,,,0.00,Wunderground v.1.15,2013-06-15 02:30:00,
2013-06-14 22:35:00,62.7,54.3,30.10,SSE,157,0.0,5.0,74,0.00,,,0.00,Wunderground v.1.15,2013-06-15 02:35:00,
2013-06-14 22:40:00,62.6,54.2,30.10,SSE,157,0.0,5.0,74,0.00,,,0.00,Wunderground v.1.15,2013-06-15 02:40:00,
2013-06-14 22:45:00,62.5,53.7,30.10,SSE,157,0.0,5.0,73,0.00,,,0.00,Wunderground v.1.15,2013-06-15 02:45:00,
2013-06-14 22:50:00,62.4,54.0,30.11,SSE,157,0.0,5.0,74,0.00,,,0.00,Wunderground v.1.15,2013-06-15 02:50:00,
2013-06-14 22:55:00,62.3,53.9,30.10,SSE,157,0.0,5.0,74,0.00,,,0.00,Wunderground v.1.15,2013-06-15 02:55:00,
2013-06-14 23:01:00,62.2,53.4,30.11,SSE,157,0.0,5.0,73,0.00,,,0.00,Wunderground v.1.15,2013-06-15 03:01:00,
2013-06-14 23:10:00,62.0,53.6,30.11,SSE,157,0.0,5.0,74,0.00,,,0.00,Wunderground v.1.15,2013-06-15 03:10:00,
2013-06-14 23:15:00,62.0,54.0,30.11,SSE,157,0.0,5.0,75,0.00,,,0.00,Wunderground v.1.15,2013-06-15 03:15:00,
2013-06-14 23:20:00,62.0,54.0,30.12,SSE,157,0.0,5.0,75,0.00,,,0.00,Wunderground v.1.15,2013-06-15 03:20:00,
2013-06-14 23:25:00,62.0,54.0,30.12,SSE,157,0.0,5.0,75,0.00,,,0.00,Wunderground v.1.15,2013-06-15 03:25:00,
2013-06-14 23:30:00,62.0,53.6,30.12,SSE,157,0.0,5.0,74,0.00,,,0.00,Wunderground v.1.15,2013-06-15 03:30:00,
2013-06-14 23:35:00,62.0,54.0,30.12,SSE,157,0.0,5.0,75,0.00,,,0.00,Wunderground v.1.15,2013-06-15 03:35:00,
2013-06-14 23:40:00,61.9,53.5,30.12,SSE,157,0.0,5.0,74,0.00,,,0.00,Wunderground v.1.15,2013-06-15 03:40:00,
2013-06-14 23:45:00,61.8,53.8,30.13,SSE,157,0.0,5.0,75,0.00,,,0.00,Wunderground v.1.15,2013-06-15 03:45:00,
2013-06-14 23:50:00,61.7,53.7,30.13,SSE,157,0.0,5.0,75,0.00,,,0.00,Wunderground v.1.15,2013-06-15 03:50:00,
2013-06-14 23:55:00,61.6,54.0,30.12,SSE,157,0.0,5.0,76,0.00,,,0.00,Wunderground v.1.15,2013-06-15 03:55:00,